sensor_id;sensor_type;location;lat;lon;timestamp;pressure;altitude;pressure_sealevel;temperature;humidity
44351;BME280;62766;62.622;17.912;2023-05-20T00:02:24;102348.39;;;8.64;54.48
44351;BME280;62766;62.622;17.912;2023-05-20T00:04:53;102350.42;;;8.46;54.48
44351;BME280;62766;62.622;17.912;2023-05-20T00:07:21;102351.83;;;8.39;54.13
44351;BME280;62766;62.622;17.912;2023-05-20T00:09:50;102355.02;;;8.28;54.93
44351;BME280;62766;62.622;17.912;2023-05-20T00:12:20;102353.00;;;8.27;55.53
44351;BME280;62766;62.622;17.912;2023-05-20T00:14:49;102352.22;;;8.32;55.52
44351;BME280;62766;62.622;17.912;2023-05-20T00:17:18;102353.25;;;8.31;55.38
44351;BME280;62766;62.622;17.912;2023-05-20T00:19:46;102354.67;;;8.25;55.31
44351;BME280;62766;62.622;17.912;2023-05-20T00:22:15;102357.15;;;8.34;55.28
44351;BME280;62766;62.622;17.912;2023-05-20T00:24:43;102358.97;;;8.33;55.34
44351;BME280;62766;62.622;17.912;2023-05-20T00:27:11;102356.62;;;8.26;54.96
44351;BME280;62766;62.622;17.912;2023-05-20T00:29:40;102356.54;;;8.17;54.71
44351;BME280;62766;62.622;17.912;2023-05-20T00:32:08;102358.89;;;8.21;55.21
44351;BME280;62766;62.622;17.912;2023-05-20T00:34:37;102360.97;;;8.15;55.13
44351;BME280;62766;62.622;17.912;2023-05-20T00:37:05;102366.32;;;8.05;56.13
44351;BME280;62766;62.622;17.912;2023-05-20T00:39:34;102367.73;;;7.96;56.87
44351;BME280;62766;62.622;17.912;2023-05-20T00:42:02;102366.75;;;7.96;56.50
44351;BME280;62766;62.622;17.912;2023-05-20T00:44:31;102368.82;;;7.94;56.52
44351;BME280;62766;62.622;17.912;2023-05-20T00:47:00;102369.94;;;7.90;56.65
44351;BME280;62766;62.622;17.912;2023-05-20T00:49:29;102369.63;;;7.91;56.99
44351;BME280;62766;62.622;17.912;2023-05-20T00:51:57;102369.60;;;8.01;56.79
44351;BME280;62766;62.622;17.912;2023-05-20T00:54:26;102366.10;;;8.01;56.82
44351;BME280;62766;62.622;17.912;2023-05-20T00:56:54;102366.41;;;8.02;57.08
44351;BME280;62766;62.622;17.912;2023-05-20T00:59:24;102367.96;;;8.00;56.90
44351;BME280;62766;62.622;17.912;2023-05-20T01:01:53;102361.04;;;7.94;56.67
44351;BME280;62766;62.622;17.912;2023-05-20T01:04:24;102360.77;;;7.85;57.10
44351;BME280;62766;62.622;17.912;2023-05-20T01:06:52;102361.68;;;7.96;57.74
44351;BME280;62766;62.622;17.912;2023-05-20T01:09:20;102362.09;;;7.90;57.73
44351;BME280;62766;62.622;17.912;2023-05-20T01:11:53;102365.20;;;8.02;58.09
44351;BME280;62766;62.622;17.912;2023-05-20T01:14:26;102364.99;;;7.78;58.43
44351;BME280;62766;62.622;17.912;2023-05-20T01:16:57;102365.21;;;7.81;58.64
44351;BME280;62766;62.622;17.912;2023-05-20T01:19:35;102363.37;;;7.72;58.50
44351;BME280;62766;62.622;17.912;2023-05-20T01:22:06;102362.33;;;7.73;58.23
44351;BME280;62766;62.622;17.912;2023-05-20T01:24:38;102362.15;;;7.64;58.65
44351;BME280;62766;62.622;17.912;2023-05-20T01:27:08;102360.82;;;7.60;58.79
44351;BME280;62766;62.622;17.912;2023-05-20T01:29:37;102363.29;;;7.52;59.24
44351;BME280;62766;62.622;17.912;2023-05-20T01:32:08;102366.78;;;7.52;58.85
44351;BME280;62766;62.622;17.912;2023-05-20T01:34:40;102368.42;;;7.58;58.75
44351;BME280;62766;62.622;17.912;2023-05-20T01:37:09;102367.25;;;7.60;59.27
44351;BME280;62766;62.622;17.912;2023-05-20T01:39:40;102365.31;;;7.62;59.04
44351;BME280;62766;62.622;17.912;2023-05-20T01:42:10;102365.28;;;7.52;58.56
44351;BME280;62766;62.622;17.912;2023-05-20T01:44:39;102364.35;;;7.54;58.38
44351;BME280;62766;62.622;17.912;2023-05-20T01:47:08;102368.24;;;7.57;58.40
44351;BME280;62766;62.622;17.912;2023-05-20T01:49:36;102371.76;;;7.43;58.65
44351;BME280;62766;62.622;17.912;2023-05-20T01:52:05;102373.63;;;7.53;58.26
44351;BME280;62766;62.622;17.912;2023-05-20T01:54:33;102372.16;;;7.43;57.99
44351;BME280;62766;62.622;17.912;2023-05-20T01:57:02;102373.19;;;7.51;57.95
44351;BME280;62766;62.622;17.912;2023-05-20T01:59:30;102373.94;;;7.43;57.92
44351;BME280;62766;62.622;17.912;2023-05-20T02:01:58;102379.38;;;7.49;57.75
44351;BME280;62766;62.622;17.912;2023-05-20T02:04:27;102381.14;;;7.53;57.94
44351;BME280;62766;62.622;17.912;2023-05-20T02:06:55;102388.31;;;7.37;58.49
44351;BME280;62766;62.622;17.912;2023-05-20T02:09:24;102385.87;;;7.41;58.70
44351;BME280;62766;62.622;17.912;2023-05-20T02:11:52;102382.83;;;7.45;58.73
44351;BME280;62766;62.622;17.912;2023-05-20T02:14:20;102382.69;;;7.46;58.52
44351;BME280;62766;62.622;17.912;2023-05-20T02:16:49;102382.50;;;7.55;58.53
44351;BME280;62766;62.622;17.912;2023-05-20T02:19:19;102383.89;;;7.41;58.76
44351;BME280;62766;62.622;17.912;2023-05-20T02:21:47;102389.67;;;7.55;58.70
44351;BME280;62766;62.622;17.912;2023-05-20T02:24:17;102386.30;;;7.56;58.52
44351;BME280;62766;62.622;17.912;2023-05-20T02:26:46;102384.62;;;7.60;58.49
44351;BME280;62766;62.622;17.912;2023-05-20T02:29:14;102376.11;;;7.53;58.64
44351;BME280;62766;62.622;17.912;2023-05-20T02:31:42;102377.79;;;7.68;59.16
44351;BME280;62766;62.622;17.912;2023-05-20T02:34:11;102381.96;;;7.60;59.58
44351;BME280;62766;62.622;17.912;2023-05-20T02:36:39;102382.97;;;7.64;59.62
44351;BME280;62766;62.622;17.912;2023-05-20T02:39:07;102385.49;;;7.60;59.46
44351;BME280;62766;62.622;17.912;2023-05-20T02:41:36;102385.78;;;7.66;59.12
44351;BME280;62766;62.622;17.912;2023-05-20T02:44:04;102384.30;;;7.67;58.79
44351;BME280;62766;62.622;17.912;2023-05-20T02:46:33;102388.36;;;7.70;59.10
44351;BME280;62766;62.622;17.912;2023-05-20T02:49:01;102392.92;;;7.74;59.05
44351;BME280;62766;62.622;17.912;2023-05-20T02:51:29;102388.87;;;7.82;59.51
44351;BME280;62766;62.622;17.912;2023-05-20T02:53:58;102388.70;;;7.85;59.41
44351;BME280;62766;62.622;17.912;2023-05-20T02:56:26;102386.42;;;7.79;59.36
44351;BME280;62766;62.622;17.912;2023-05-20T02:58:54;102386.82;;;7.96;59.00
44351;BME280;62766;62.622;17.912;2023-05-20T03:01:22;102385.81;;;8.02;58.78
44351;BME280;62766;62.622;17.912;2023-05-20T03:03:51;102389.42;;;8.04;58.70
44351;BME280;62766;62.622;17.912;2023-05-20T03:06:19;102394.11;;;8.05;58.75
44351;BME280;62766;62.622;17.912;2023-05-20T03:08:48;102397.84;;;8.12;58.64
44351;BME280;62766;62.622;17.912;2023-05-20T03:11:16;102401.32;;;8.16;58.25
44351;BME280;62766;62.622;17.912;2023-05-20T03:13:44;102402.56;;;8.19;58.38
44351;BME280;62766;62.622;17.912;2023-05-20T03:16:13;102403.95;;;8.33;58.14
44351;BME280;62766;62.622;17.912;2023-05-20T03:18:41;102406.33;;;8.41;58.02
44351;BME280;62766;62.622;17.912;2023-05-20T03:21:09;102411.03;;;8.54;57.94
44351;BME280;62766;62.622;17.912;2023-05-20T03:23:37;102406.17;;;8.58;57.82
44351;BME280;62766;62.622;17.912;2023-05-20T03:26:06;102400.08;;;8.61;57.79
44351;BME280;62766;62.622;17.912;2023-05-20T03:28:35;102403.12;;;8.83;57.33
44351;BME280;62766;62.622;17.912;2023-05-20T03:31:04;102409.62;;;8.75;57.30
44351;BME280;62766;62.622;17.912;2023-05-20T03:33:34;102410.50;;;9.02;57.21
44351;BME280;62766;62.622;17.912;2023-05-20T03:36:03;102410.61;;;9.30;56.77
44351;BME280;62766;62.622;17.912;2023-05-20T03:38:31;102414.97;;;9.37;56.46
44351;BME280;62766;62.622;17.912;2023-05-20T03:40:59;102415.64;;;9.31;56.30
44351;BME280;62766;62.622;17.912;2023-05-20T03:43:27;102409.88;;;9.43;55.44
44351;BME280;62766;62.622;17.912;2023-05-20T03:45:56;102412.87;;;9.71;55.66
44351;BME280;62766;62.622;17.912;2023-05-20T03:48:24;102409.41;;;9.69;55.63
44351;BME280;62766;62.622;17.912;2023-05-20T03:50:52;102409.89;;;10.02;55.20
44351;BME280;62766;62.622;17.912;2023-05-20T03:53:21;102414.72;;;10.09;55.04
44351;BME280;62766;62.622;17.912;2023-05-20T03:55:50;102414.96;;;10.09;55.22
44351;BME280;62766;62.622;17.912;2023-05-20T03:58:19;102414.63;;;10.34;55.43
44351;BME280;62766;62.622;17.912;2023-05-20T04:03:22;102424.12;;;10.54;54.96
44351;BME280;62766;62.622;17.912;2023-05-20T04:05:52;102427.85;;;10.52;54.79
44351;BME280;62766;62.622;17.912;2023-05-20T04:08:20;102429.25;;;10.66;54.17
44351;BME280;62766;62.622;17.912;2023-05-20T04:10:48;102427.78;;;10.80;54.01
44351;BME280;62766;62.622;17.912;2023-05-20T04:13:16;102424.79;;;10.95;54.20
44351;BME280;62766;62.622;17.912;2023-05-20T04:15:46;102429.96;;;11.08;53.76
44351;BME280;62766;62.622;17.912;2023-05-20T04:18:15;102432.73;;;11.27;53.66
44351;BME280;62766;62.622;17.912;2023-05-20T04:20:44;102434.60;;;11.61;53.44
44351;BME280;62766;62.622;17.912;2023-05-20T04:23:13;102431.02;;;11.67;52.11
44351;BME280;62766;62.622;17.912;2023-05-20T04:25:41;102432.45;;;11.89;52.14
44351;BME280;62766;62.622;17.912;2023-05-20T04:28:10;102432.86;;;11.99;52.25
44351;BME280;62766;62.622;17.912;2023-05-20T04:30:38;102436.50;;;12.10;51.46
44351;BME280;62766;62.622;17.912;2023-05-20T04:33:06;102431.95;;;12.13;51.20
44351;BME280;62766;62.622;17.912;2023-05-20T04:35:34;102431.56;;;12.28;50.93
44351;BME280;62766;62.622;17.912;2023-05-20T04:38:03;102436.17;;;12.31;50.34
44351;BME280;62766;62.622;17.912;2023-05-20T04:40:31;102436.15;;;12.45;50.38
44351;BME280;62766;62.622;17.912;2023-05-20T04:42:59;102440.47;;;12.51;50.04
44351;BME280;62766;62.622;17.912;2023-05-20T04:45:27;102443.52;;;12.60;49.62
44351;BME280;62766;62.622;17.912;2023-05-20T04:47:56;102444.10;;;12.68;49.57
44351;BME280;62766;62.622;17.912;2023-05-20T04:50:25;102447.42;;;12.66;49.47
44351;BME280;62766;62.622;17.912;2023-05-20T04:52:54;102448.88;;;12.79;48.70
44351;BME280;62766;62.622;17.912;2023-05-20T04:55:22;102446.67;;;13.05;48.53
44351;BME280;62766;62.622;17.912;2023-05-20T04:57:52;102446.75;;;13.06;48.79
44351;BME280;62766;62.622;17.912;2023-05-20T05:00:20;102447.20;;;13.31;48.34
44351;BME280;62766;62.622;17.912;2023-05-20T05:02:49;102450.73;;;13.51;48.14
44351;BME280;62766;62.622;17.912;2023-05-20T05:05:17;102450.71;;;13.65;47.54
44351;BME280;62766;62.622;17.912;2023-05-20T05:07:45;102454.72;;;13.75;47.93
44351;BME280;62766;62.622;17.912;2023-05-20T05:10:13;102454.54;;;13.94;47.38
44351;BME280;62766;62.622;17.912;2023-05-20T05:12:41;102455.67;;;14.01;47.31
44351;BME280;62766;62.622;17.912;2023-05-20T05:15:10;102454.89;;;14.20;46.65
44351;BME280;62766;62.622;17.912;2023-05-20T05:17:38;102450.35;;;14.45;46.49
44351;BME280;62766;62.622;17.912;2023-05-20T05:20:07;102443.57;;;14.64;46.33
44351;BME280;62766;62.622;17.912;2023-05-20T05:22:36;102441.69;;;14.53;46.64
44351;BME280;62766;62.622;17.912;2023-05-20T05:25:05;102446.39;;;14.79;46.50
44351;BME280;62766;62.622;17.912;2023-05-20T05:27:34;102449.00;;;14.81;45.90
44351;BME280;62766;62.622;17.912;2023-05-20T05:30:04;102449.98;;;15.11;44.94
44351;BME280;62766;62.622;17.912;2023-05-20T05:32:32;102447.18;;;15.14;44.92
44351;BME280;62766;62.622;17.912;2023-05-20T05:35:00;102445.72;;;15.28;44.35
44351;BME280;62766;62.622;17.912;2023-05-20T05:37:29;102445.55;;;15.46;44.38
44351;BME280;62766;62.622;17.912;2023-05-20T05:39:57;102442.51;;;15.72;43.75
44351;BME280;62766;62.622;17.912;2023-05-20T05:42:25;102439.40;;;15.73;43.54
44351;BME280;62766;62.622;17.912;2023-05-20T05:44:53;102437.35;;;16.02;43.60
44351;BME280;62766;62.622;17.912;2023-05-20T05:47:22;102437.66;;;16.18;43.89
44351;BME280;62766;62.622;17.912;2023-05-20T05:49:50;102436.28;;;16.19;43.45
44351;BME280;62766;62.622;17.912;2023-05-20T05:52:18;102436.83;;;16.20;41.51
44351;BME280;62766;62.622;17.912;2023-05-20T05:54:46;102435.33;;;16.29;41.56
44351;BME280;62766;62.622;17.912;2023-05-20T05:57:14;102432.64;;;16.39;43.21
44351;BME280;62766;62.622;17.912;2023-05-20T05:59:43;102436.19;;;16.61;41.56
44351;BME280;62766;62.622;17.912;2023-05-20T06:02:11;102435.85;;;16.74;40.66
44351;BME280;62766;62.622;17.912;2023-05-20T06:04:41;102429.22;;;16.83;41.05
44351;BME280;62766;62.622;17.912;2023-05-20T06:07:09;102428.97;;;17.02;39.77
44351;BME280;62766;62.622;17.912;2023-05-20T06:09:37;102434.15;;;17.21;41.39
44351;BME280;62766;62.622;17.912;2023-05-20T06:12:06;102432.29;;;17.30;42.51
44351;BME280;62766;62.622;17.912;2023-05-20T06:14:34;102434.35;;;17.35;41.07
44351;BME280;62766;62.622;17.912;2023-05-20T06:17:03;102438.06;;;17.31;41.55
44351;BME280;62766;62.622;17.912;2023-05-20T06:19:32;102434.74;;;17.33;41.27
44351;BME280;62766;62.622;17.912;2023-05-20T06:22:00;102437.18;;;17.34;40.92
44351;BME280;62766;62.622;17.912;2023-05-20T06:24:28;102435.69;;;17.48;40.74
44351;BME280;62766;62.622;17.912;2023-05-20T06:26:56;102438.26;;;17.45;40.65
44351;BME280;62766;62.622;17.912;2023-05-20T06:29:25;102437.10;;;17.50;40.15
44351;BME280;62766;62.622;17.912;2023-05-20T06:31:54;102438.00;;;17.46;39.27
44351;BME280;62766;62.622;17.912;2023-05-20T06:34:23;102443.68;;;17.57;39.26
44351;BME280;62766;62.622;17.912;2023-05-20T06:36:52;102441.47;;;17.56;39.27
44351;BME280;62766;62.622;17.912;2023-05-20T06:39:20;102441.33;;;17.71;39.19
44351;BME280;62766;62.622;17.912;2023-05-20T06:41:49;102436.72;;;17.78;38.99
44351;BME280;62766;62.622;17.912;2023-05-20T06:44:18;102439.65;;;18.01;39.89
44351;BME280;62766;62.622;17.912;2023-05-20T06:46:47;102444.52;;;17.89;40.03
44351;BME280;62766;62.622;17.912;2023-05-20T06:49:15;102450.35;;;17.86;40.07
44351;BME280;62766;62.622;17.912;2023-05-20T06:51:43;102454.10;;;17.87;40.69
44351;BME280;62766;62.622;17.912;2023-05-20T06:54:11;102456.04;;;17.87;39.98
44351;BME280;62766;62.622;17.912;2023-05-20T06:56:39;102451.43;;;17.76;40.63
44351;BME280;62766;62.622;17.912;2023-05-20T06:59:08;102448.32;;;17.90;41.11
44351;BME280;62766;62.622;17.912;2023-05-20T07:01:36;102448.76;;;17.92;41.26
44351;BME280;62766;62.622;17.912;2023-05-20T07:04:04;102455.31;;;17.94;40.44
44351;BME280;62766;62.622;17.912;2023-05-20T07:06:32;102459.57;;;17.66;41.61
44351;BME280;62766;62.622;17.912;2023-05-20T07:09:00;102463.17;;;17.54;41.84
44351;BME280;62766;62.622;17.912;2023-05-20T07:11:28;102463.98;;;17.39;42.91
44351;BME280;62766;62.622;17.912;2023-05-20T07:13:57;102463.04;;;17.45;43.07
44351;BME280;62766;62.622;17.912;2023-05-20T07:16:25;102460.20;;;17.31;42.41
44351;BME280;62766;62.622;17.912;2023-05-20T07:18:53;102461.26;;;17.48;42.73
44351;BME280;62766;62.622;17.912;2023-05-20T07:21:22;102467.36;;;17.39;42.07
44351;BME280;62766;62.622;17.912;2023-05-20T07:23:52;102468.81;;;17.54;42.91
44351;BME280;62766;62.622;17.912;2023-05-20T07:26:20;102470.13;;;17.81;41.91
44351;BME280;62766;62.622;17.912;2023-05-20T07:28:48;102471.79;;;17.83;41.89
44351;BME280;62766;62.622;17.912;2023-05-20T07:31:16;102472.89;;;17.98;40.69
44351;BME280;62766;62.622;17.912;2023-05-20T07:33:44;102476.76;;;18.03;40.86
44351;BME280;62766;62.622;17.912;2023-05-20T07:36:12;102475.74;;;18.05;40.74
44351;BME280;62766;62.622;17.912;2023-05-20T07:38:41;102476.81;;;18.22;39.46
44351;BME280;62766;62.622;17.912;2023-05-20T07:41:09;102472.77;;;18.28;40.59
44351;BME280;62766;62.622;17.912;2023-05-20T07:43:37;102466.33;;;18.39;39.04
44351;BME280;62766;62.622;17.912;2023-05-20T07:46:05;102460.88;;;18.57;39.14
44351;BME280;62766;62.622;17.912;2023-05-20T07:48:33;102462.66;;;18.60;39.91
44351;BME280;62766;62.622;17.912;2023-05-20T07:51:02;102464.67;;;18.62;38.66
44351;BME280;62766;62.622;17.912;2023-05-20T07:53:30;102466.37;;;18.77;38.87
44351;BME280;62766;62.622;17.912;2023-05-20T07:55:58;102465.27;;;18.69;38.73
44351;BME280;62766;62.622;17.912;2023-05-20T07:58:26;102464.26;;;18.78;38.29
44351;BME280;62766;62.622;17.912;2023-05-20T08:00:55;102459.49;;;18.90;39.76
44351;BME280;62766;62.622;17.912;2023-05-20T08:03:23;102461.28;;;18.90;39.22
44351;BME280;62766;62.622;17.912;2023-05-20T08:05:53;102466.28;;;19.21;39.38
44351;BME280;62766;62.622;17.912;2023-05-20T08:08:21;102468.04;;;19.24;38.71
44351;BME280;62766;62.622;17.912;2023-05-20T08:10:50;102468.48;;;19.24;38.71
44351;BME280;62766;62.622;17.912;2023-05-20T08:13:19;102469.43;;;19.48;39.36
44351;BME280;62766;62.622;17.912;2023-05-20T08:15:47;102468.98;;;19.52;37.67
44351;BME280;62766;62.622;17.912;2023-05-20T08:18:15;102469.21;;;19.65;38.47
44351;BME280;62766;62.622;17.912;2023-05-20T08:20:43;102466.57;;;19.65;38.76
44351;BME280;62766;62.622;17.912;2023-05-20T08:23:11;102467.14;;;19.60;38.80
44351;BME280;62766;62.622;17.912;2023-05-20T08:25:40;102470.18;;;19.64;39.46
44351;BME280;62766;62.622;17.912;2023-05-20T08:28:08;102472.19;;;19.80;39.46
44351;BME280;62766;62.622;17.912;2023-05-20T08:30:36;102470.70;;;19.75;38.59
44351;BME280;62766;62.622;17.912;2023-05-20T08:33:04;102468.85;;;19.88;38.19
44351;BME280;62766;62.622;17.912;2023-05-20T08:35:32;102468.40;;;19.74;38.40
44351;BME280;62766;62.622;17.912;2023-05-20T08:38:00;102469.47;;;19.83;38.50
44351;BME280;62766;62.622;17.912;2023-05-20T08:40:28;102469.01;;;19.79;36.86
44351;BME280;62766;62.622;17.912;2023-05-20T08:42:57;102467.07;;;19.84;37.29
44351;BME280;62766;62.622;17.912;2023-05-20T08:45:25;102461.68;;;19.84;38.08
44351;BME280;62766;62.622;17.912;2023-05-20T08:47:55;102463.05;;;19.73;38.53
44351;BME280;62766;62.622;17.912;2023-05-20T08:50:25;102460.40;;;19.90;38.21
44351;BME280;62766;62.622;17.912;2023-05-20T08:52:54;102462.54;;;20.13;38.50
44351;BME280;62766;62.622;17.912;2023-05-20T08:55:25;102462.42;;;20.07;37.95
44351;BME280;62766;62.622;17.912;2023-05-20T08:57:56;102462.82;;;20.05;38.90
44351;BME280;62766;62.622;17.912;2023-05-20T09:00:25;102459.72;;;20.18;37.02
44351;BME280;62766;62.622;17.912;2023-05-20T09:02:55;102461.86;;;20.11;36.93
44351;BME280;62766;62.622;17.912;2023-05-20T09:05:25;102459.03;;;20.12;36.91
44351;BME280;62766;62.622;17.912;2023-05-20T09:08:04;102460.31;;;20.20;37.30
44351;BME280;62766;62.622;17.912;2023-05-20T09:10:33;102461.05;;;20.17;36.74
44351;BME280;62766;62.622;17.912;2023-05-20T09:13:01;102454.65;;;20.12;37.15
44351;BME280;62766;62.622;17.912;2023-05-20T09:15:31;102451.21;;;20.29;37.82
44351;BME280;62766;62.622;17.912;2023-05-20T09:18:01;102451.29;;;20.29;36.82
44351;BME280;62766;62.622;17.912;2023-05-20T09:20:33;102451.82;;;20.43;36.75
44351;BME280;62766;62.622;17.912;2023-05-20T09:23:03;102451.01;;;20.44;36.55
44351;BME280;62766;62.622;17.912;2023-05-20T09:25:32;102450.48;;;20.48;36.57
44351;BME280;62766;62.622;17.912;2023-05-20T09:28:01;102449.17;;;20.72;37.34
44351;BME280;62766;62.622;17.912;2023-05-20T09:30:31;102446.15;;;20.53;36.55
44351;BME280;62766;62.622;17.912;2023-05-20T09:33:03;102450.77;;;20.53;36.60
44351;BME280;62766;62.622;17.912;2023-05-20T09:35:34;102452.96;;;20.52;37.12
44351;BME280;62766;62.622;17.912;2023-05-20T09:38:05;102453.81;;;20.51;36.30
44351;BME280;62766;62.622;17.912;2023-05-20T09:40:34;102446.52;;;20.27;35.96
44351;BME280;62766;62.622;17.912;2023-05-20T09:43:03;102452.58;;;20.32;37.43
44351;BME280;62766;62.622;17.912;2023-05-20T09:45:32;102453.06;;;20.27;37.15
44351;BME280;62766;62.622;17.912;2023-05-20T09:48:02;102458.56;;;20.11;37.57
44351;BME280;62766;62.622;17.912;2023-05-20T09:50:31;102452.58;;;19.95;37.18
44351;BME280;62766;62.622;17.912;2023-05-20T09:53:02;102453.04;;;19.94;36.92
44351;BME280;62766;62.622;17.912;2023-05-20T09:55:30;102453.40;;;19.92;37.67
44351;BME280;62766;62.622;17.912;2023-05-20T09:58:02;102451.06;;;20.04;36.73
44351;BME280;62766;62.622;17.912;2023-05-20T10:03:26;102446.55;;;20.22;37.39
44351;BME280;62766;62.622;17.912;2023-05-20T10:06:04;102439.67;;;20.32;37.09
44351;BME280;62766;62.622;17.912;2023-05-20T10:08:50;102440.97;;;20.01;35.80
44351;BME280;62766;62.622;17.912;2023-05-20T10:11:28;102446.01;;;19.81;36.19
44351;BME280;62766;62.622;17.912;2023-05-20T10:14:13;102448.59;;;19.61;36.70
44351;BME280;62766;62.622;17.912;2023-05-20T10:16:49;102450.60;;;19.34;36.94
44351;BME280;62766;62.622;17.912;2023-05-20T10:19:26;102446.52;;;19.17;37.19
44351;BME280;62766;62.622;17.912;2023-05-20T10:21:57;102448.41;;;19.00;37.61
44351;BME280;62766;62.622;17.912;2023-05-20T10:24:31;102449.43;;;19.21;38.41
44351;BME280;62766;62.622;17.912;2023-05-20T10:27:01;102455.69;;;19.35;37.83
44351;BME280;62766;62.622;17.912;2023-05-20T10:29:41;102455.12;;;19.49;37.27
44351;BME280;62766;62.622;17.912;2023-05-20T10:32:11;102450.59;;;19.24;36.93
44351;BME280;62766;62.622;17.912;2023-05-20T10:34:50;102449.28;;;19.25;37.28
44351;BME280;62766;62.622;17.912;2023-05-20T10:37:22;102444.04;;;18.83;37.12
44351;BME280;62766;62.622;17.912;2023-05-20T10:39:50;102438.43;;;18.84;38.01
44351;BME280;62766;62.622;17.912;2023-05-20T10:42:27;102437.82;;;18.93;37.59
44351;BME280;62766;62.622;17.912;2023-05-20T10:44:55;102439.78;;;18.55;37.33
44351;BME280;62766;62.622;17.912;2023-05-20T10:47:24;102440.46;;;18.17;37.80
44351;BME280;62766;62.622;17.912;2023-05-20T10:49:52;102440.07;;;18.00;39.07
44351;BME280;62766;62.622;17.912;2023-05-20T10:52:20;102437.39;;;18.21;39.26
44351;BME280;62766;62.622;17.912;2023-05-20T10:54:56;102441.95;;;18.53;39.24
44351;BME280;62766;62.622;17.912;2023-05-20T10:57:27;102434.30;;;18.89;38.69
44351;BME280;62766;62.622;17.912;2023-05-20T10:59:55;102436.57;;;19.06;38.32
44351;BME280;62766;62.622;17.912;2023-05-20T11:02:23;102434.91;;;19.11;38.59
44351;BME280;62766;62.622;17.912;2023-05-20T11:04:55;102433.20;;;19.39;37.61
44351;BME280;62766;62.622;17.912;2023-05-20T11:07:24;102429.48;;;19.55;37.10
44351;BME280;62766;62.622;17.912;2023-05-20T11:09:53;102427.41;;;19.64;36.86
44351;BME280;62766;62.622;17.912;2023-05-20T11:12:22;102430.98;;;19.66;37.14
44351;BME280;62766;62.622;17.912;2023-05-20T11:14:51;102430.16;;;19.77;37.40
44351;BME280;62766;62.622;17.912;2023-05-20T11:17:21;102431.97;;;19.73;37.22
44351;BME280;62766;62.622;17.912;2023-05-20T11:19:49;102427.07;;;19.71;37.20
44351;BME280;62766;62.622;17.912;2023-05-20T11:22:17;102431.81;;;19.73;37.15
44351;BME280;62766;62.622;17.912;2023-05-20T11:24:45;102429.94;;;19.83;37.46
44351;BME280;62766;62.622;17.912;2023-05-20T11:27:14;102428.18;;;19.90;37.32
44351;BME280;62766;62.622;17.912;2023-05-20T11:29:42;102425.36;;;19.95;37.61
44351;BME280;62766;62.622;17.912;2023-05-20T11:32:11;102424.55;;;20.06;37.84
44351;BME280;62766;62.622;17.912;2023-05-20T11:34:40;102426.13;;;20.10;37.81
44351;BME280;62766;62.622;17.912;2023-05-20T11:37:10;102418.78;;;20.11;37.49
44351;BME280;62766;62.622;17.912;2023-05-20T11:39:44;102412.16;;;20.28;37.32
44351;BME280;62766;62.622;17.912;2023-05-20T11:42:15;102410.21;;;20.29;37.50
44351;BME280;62766;62.622;17.912;2023-05-20T11:44:43;102413.52;;;20.23;36.87
44351;BME280;62766;62.622;17.912;2023-05-20T11:47:12;102413.89;;;20.09;37.27
44351;BME280;62766;62.622;17.912;2023-05-20T11:49:41;102416.12;;;20.03;37.50
44351;BME280;62766;62.622;17.912;2023-05-20T11:52:09;102415.05;;;19.98;38.28
44351;BME280;62766;62.622;17.912;2023-05-20T11:54:40;102414.36;;;20.05;38.03
44351;BME280;62766;62.622;17.912;2023-05-20T11:57:10;102413.46;;;20.13;38.29
44351;BME280;62766;62.622;17.912;2023-05-20T11:59:39;102408.75;;;20.34;37.87
44351;BME280;62766;62.622;17.912;2023-05-20T12:02:08;102407.93;;;20.50;37.94
44351;BME280;62766;62.622;17.912;2023-05-20T12:04:37;102403.40;;;20.33;37.75
44351;BME280;62766;62.622;17.912;2023-05-20T12:07:05;102409.47;;;20.41;37.28
44351;BME280;62766;62.622;17.912;2023-05-20T12:09:33;102406.00;;;20.50;37.76
44351;BME280;62766;62.622;17.912;2023-05-20T12:12:01;102403.16;;;20.54;37.37
44351;BME280;62766;62.622;17.912;2023-05-20T12:14:29;102399.92;;;20.49;36.31
44351;BME280;62766;62.622;17.912;2023-05-20T12:16:58;102401.92;;;20.64;36.61
44351;BME280;62766;62.622;17.912;2023-05-20T12:19:26;102398.24;;;20.72;36.62
44351;BME280;62766;62.622;17.912;2023-05-20T12:21:54;102401.20;;;20.87;36.91
44351;BME280;62766;62.622;17.912;2023-05-20T12:24:23;102398.06;;;20.83;36.67
44351;BME280;62766;62.622;17.912;2023-05-20T12:26:51;102399.10;;;20.85;35.93
44351;BME280;62766;62.622;17.912;2023-05-20T12:29:19;102397.23;;;20.99;36.33
44351;BME280;62766;62.622;17.912;2023-05-20T12:31:48;102400.38;;;21.21;36.56
44351;BME280;62766;62.622;17.912;2023-05-20T12:34:16;102394.01;;;21.41;36.05
44351;BME280;62766;62.622;17.912;2023-05-20T12:36:44;102391.42;;;21.56;36.63
44351;BME280;62766;62.622;17.912;2023-05-20T12:39:13;102391.50;;;21.72;35.90
44351;BME280;62766;62.622;17.912;2023-05-20T12:41:41;102389.74;;;21.60;35.04
44351;BME280;62766;62.622;17.912;2023-05-20T12:44:10;102385.14;;;21.43;34.34
44351;BME280;62766;62.622;17.912;2023-05-20T12:46:38;102390.25;;;21.52;35.71
44351;BME280;62766;62.622;17.912;2023-05-20T12:49:06;102393.14;;;21.57;35.11
44351;BME280;62766;62.622;17.912;2023-05-20T12:51:35;102392.28;;;21.43;35.07
44351;BME280;62766;62.622;17.912;2023-05-20T12:54:04;102391.02;;;21.43;35.58
44351;BME280;62766;62.622;17.912;2023-05-20T12:56:34;102389.12;;;21.50;35.06
44351;BME280;62766;62.622;17.912;2023-05-20T12:59:02;102390.45;;;21.56;35.31